createdAt,value
2023-04-26T00:00:26.374Z,2.03
2023-04-26T00:05:32.077Z,1.77
2023-04-26T00:10:34.879Z,1.67
2023-04-26T00:15:38.338Z,1.70
2023-04-26T00:20:42.641Z,1.95
2023-04-26T00:25:45.679Z,1.50
2023-04-26T00:30:48.951Z,1.20
2023-04-26T00:35:53.238Z,1.27
2023-04-26T00:40:56.066Z,0.95
2023-04-26T00:45:59.381Z,1.52
2023-04-26T00:51:05.598Z,1.38
2023-04-26T00:56:10.912Z,1.90
2023-04-26T01:01:14.371Z,2.80
2023-04-26T01:06:19.000Z,2.42
2023-04-26T01:11:23.278Z,2.53
2023-04-26T01:16:26.736Z,3.30
2023-04-26T01:21:33.344Z,3.00
2023-04-26T01:26:43.848Z,2.72
2023-04-26T01:31:47.207Z,2.80
2023-04-26T01:36:51.030Z,3.20
2023-04-26T01:41:55.317Z,2.58
2023-04-26T01:46:58.079Z,2.33
2023-04-26T01:52:00.864Z,2.70
2023-04-26T01:57:05.153Z,2.88
2023-04-26T02:02:07.997Z,2.70
2023-04-26T02:07:14.190Z,3.00
2023-04-26T02:12:23.072Z,2.50
2023-04-26T02:17:26.632Z,3.03
2023-04-26T02:22:29.754Z,2.88
2023-04-26T02:27:33.900Z,2.70
2023-04-26T02:32:39.803Z,3.22
2023-04-26T02:37:42.627Z,2.40
2023-04-26T02:42:47.586Z,2.65
2023-04-26T02:47:50.444Z,2.63
2023-04-26T02:52:53.194Z,2.65
2023-04-26T02:57:57.602Z,3.28
2023-04-26T03:03:00.930Z,3.40
2023-04-26T03:08:03.790Z,3.28
2023-04-26T03:13:07.961Z,3.20
2023-04-26T03:18:10.973Z,3.22
2023-04-26T03:23:14.124Z,2.70
2023-04-26T03:28:18.683Z,2.83
2023-04-26T03:33:21.599Z,2.65
2023-04-26T03:38:24.986Z,3.25
2023-04-26T03:43:29.817Z,3.15
2023-04-26T03:48:32.834Z,2.20
2023-04-26T03:53:36.152Z,2.75
2023-04-26T03:58:40.364Z,2.38
2023-04-26T04:03:43.481Z,3.00
2023-04-26T04:08:46.847Z,2.38
2023-04-26T04:13:51.973Z,3.72
2023-04-26T04:18:54.982Z,3.28
2023-04-26T04:23:58.052Z,3.45
2023-04-26T04:29:09.160Z,3.97
2023-04-26T04:34:13.672Z,3.00
2023-04-26T04:39:18.445Z,3.13
2023-04-26T04:44:24.293Z,3.00
2023-04-26T04:49:29.177Z,3.40
2023-04-26T04:54:32.208Z,3.40
2023-04-26T04:59:37.644Z,3.63
2023-04-26T05:04:41.047Z,2.83
2023-04-26T05:09:44.135Z,2.40
2023-04-26T05:14:48.510Z,3.08
2023-04-26T05:19:51.765Z,2.85
2023-04-26T05:24:54.648Z,2.90
2023-04-26T05:29:58.867Z,4.07
2023-04-26T05:35:19.953Z,3.05
2023-04-26T05:40:23.895Z,2.97
2023-04-26T05:45:28.109Z,3.08
2023-04-26T05:50:31.257Z,2.60
2023-04-26T05:55:34.076Z,2.75
2023-04-26T06:00:39.555Z,3.03
2023-04-26T06:05:43.514Z,3.10
2023-04-26T06:10:47.100Z,2.78
2023-04-26T06:15:51.455Z,2.92
2023-04-26T06:20:54.280Z,2.45
2023-04-26T06:25:57.246Z,2.58
2023-04-26T06:31:01.517Z,2.80
2023-04-26T06:36:06.235Z,2.67
2023-04-26T06:41:09.339Z,2.45
2023-04-26T06:46:14.291Z,2.28
2023-04-26T06:51:17.374Z,2.00
2023-04-26T06:56:20.165Z,2.55
2023-04-26T07:01:24.393Z,3.00
2023-04-26T07:06:27.691Z,2.20
2023-04-26T07:11:31.124Z,2.20
2023-04-26T07:16:35.389Z,1.90
2023-04-26T07:21:38.173Z,2.10
2023-04-26T07:26:41.288Z,1.65
2023-04-26T07:31:45.550Z,2.10
2023-04-26T07:36:48.281Z,1.40
2023-04-26T07:41:51.064Z,2.20
2023-04-26T07:46:55.926Z,1.90
2023-04-26T07:52:02.164Z,2.00
2023-04-26T07:57:05.061Z,2.30
2023-04-26T08:02:09.238Z,1.95
2023-04-26T08:07:12.022Z,1.70
2023-04-26T08:12:14.929Z,1.50
2023-04-26T08:17:19.344Z,1.90
2023-04-26T08:22:22.230Z,2.10
2023-04-26T08:27:24.957Z,1.60
2023-04-26T08:32:29.174Z,1.60
2023-04-26T08:37:32.135Z,1.70
2023-04-26T08:42:38.434Z,1.77
2023-04-26T08:47:45.751Z,2.10
2023-04-26T08:52:50.385Z,2.53
2023-04-26T08:57:53.194Z,3.10
2023-04-26T09:02:57.584Z,2.88
2023-04-26T09:08:03.457Z,2.95
2023-04-26T09:13:06.391Z,3.35
2023-04-26T09:18:21.291Z,2.90
2023-04-26T09:23:24.229Z,2.97
2023-04-26T09:28:27.320Z,2.70
2023-04-26T09:33:31.710Z,1.33
2023-04-26T09:38:45.893Z,1.20
2023-04-26T09:43:51.418Z,1.40
2023-04-26T09:49:03.690Z,1.38
2023-04-26T09:54:06.681Z,1.75
2023-04-26T09:59:11.579Z,1.40
2023-04-26T10:04:16.058Z,1.20
2023-04-26T10:09:19.029Z,1.40
2023-04-26T10:14:21.828Z,1.73
2023-04-26T10:19:26.171Z,2.10
2023-04-26T10:24:29.350Z,1.80
2023-04-26T10:30:07.405Z,2.08
2023-04-26T10:35:13.090Z,1.67
2023-04-26T10:40:27.564Z,2.13
2023-04-26T10:45:31.212Z,1.98
2023-04-26T10:50:35.480Z,2.03
2023-04-26T10:55:42.995Z,1.48
2023-04-26T11:01:05.226Z,1.83
2023-04-26T11:06:13.676Z,1.60
2023-04-26T11:16:26.686Z,1.60
2023-04-26T11:21:39.397Z,2.17
2023-04-26T11:26:43.529Z,2.05
2023-04-26T11:31:52.374Z,1.58
2023-04-26T11:36:56.672Z,1.98
2023-04-26T11:42:07.085Z,1.45
2023-04-26T11:47:11.012Z,1.40
2023-04-26T11:52:15.632Z,1.27
2023-04-26T11:57:19.376Z,1.13
2023-04-26T12:02:25.555Z,1.30
2023-04-26T12:07:34.127Z,1.17
2023-04-26T12:12:36.878Z,1.20
2023-04-26T12:17:39.812Z,1.48
2023-04-26T12:22:44.067Z,1.55
2023-04-26T12:27:46.818Z,1.52
2023-04-26T12:32:49.691Z,1.52
2023-04-26T12:37:56.757Z,1.00
2023-04-26T12:42:59.622Z,1.27
2023-04-26T12:48:02.648Z,0.90
2023-04-26T12:53:06.787Z,1.27
2023-04-26T12:58:09.571Z,0.95
2023-04-26T13:03:14.646Z,1.20
2023-04-26T13:08:19.241Z,1.13
2023-04-26T13:13:29.276Z,1.00
2023-04-26T13:18:39.036Z,1.10
2023-04-26T13:23:43.325Z,1.02
2023-04-26T13:28:47.384Z,0.90
2023-04-26T13:33:50.795Z,1.20
2023-04-26T13:38:54.984Z,1.10
2023-04-26T13:43:57.753Z,1.15
2023-04-26T13:49:01.626Z,1.45
2023-04-26T13:54:06.643Z,1.02
2023-04-26T13:59:09.445Z,1.17
2023-04-26T14:04:12.655Z,1.10
2023-04-26T14:09:18.392Z,1.10
2023-04-26T14:14:21.208Z,1.10
2023-04-26T14:19:24.107Z,1.42
2023-04-26T14:24:28.243Z,0.93
2023-04-26T14:29:31.041Z,1.15
2023-04-26T14:34:41.095Z,0.80
2023-04-26T14:39:45.372Z,1.02
2023-04-26T14:44:48.202Z,1.27
2023-04-26T14:49:56.650Z,1.13
2023-04-26T14:55:00.803Z,1.27
2023-04-26T15:00:08.757Z,0.93
2023-04-26T15:05:11.895Z,1.30
2023-04-26T15:10:16.209Z,1.00
2023-04-26T15:15:18.973Z,1.50
2023-04-26T15:20:22.370Z,0.95
2023-04-26T15:25:26.649Z,1.10
2023-04-26T15:30:31.527Z,1.52
2023-04-26T15:35:36.166Z,1.10
2023-04-26T15:40:40.633Z,1.38
2023-04-26T15:45:44.475Z,1.25
2023-04-26T15:50:50.650Z,1.33
2023-04-26T15:55:54.777Z,1.63
2023-04-26T16:00:58.688Z,1.30
2023-04-26T16:06:02.022Z,1.20
2023-04-26T16:11:09.896Z,1.30
2023-04-26T16:16:18.282Z,1.40
2023-04-26T16:26:37.197Z,1.38
2023-04-26T16:31:40.390Z,1.60
2023-04-26T16:36:44.177Z,1.92
2023-04-26T16:41:49.050Z,1.48
2023-04-26T16:46:54.925Z,1.70
2023-04-26T16:52:00.006Z,2.25
2023-04-26T16:57:04.718Z,1.90
2023-04-26T17:02:07.812Z,1.67
2023-04-26T17:07:10.817Z,1.40
2023-04-26T17:12:18.282Z,1.52
2023-04-26T17:17:21.351Z,1.97
2023-04-26T17:22:25.469Z,1.55
2023-04-26T17:27:29.754Z,1.35
2023-04-26T17:32:32.685Z,1.40
2023-04-26T17:37:35.761Z,1.40
2023-04-26T17:42:39.949Z,1.85
2023-04-26T17:47:43.105Z,1.38
2023-04-26T17:52:46.414Z,1.60
2023-04-26T17:57:50.604Z,1.48
2023-04-26T18:02:53.924Z,2.78
2023-04-26T18:07:57.374Z,2.08
2023-04-26T18:13:01.735Z,2.17
2023-04-26T18:18:05.704Z,1.80
2023-04-26T18:23:18.075Z,1.95
2023-04-26T18:28:23.099Z,1.85
2023-04-26T18:33:32.958Z,1.60
2023-04-26T18:38:36.106Z,2.20
2023-04-26T18:43:43.002Z,2.95
2023-04-26T18:48:46.047Z,1.80
2023-04-26T18:53:55.876Z,2.30
2023-04-26T18:59:24.048Z,2.00
2023-04-26T19:12:12.137Z,2.50
2023-04-26T19:22:52.429Z,2.25
2023-04-26T19:34:07.856Z,2.35
2023-04-26T19:39:10.968Z,2.40
2023-04-26T19:44:14.147Z,2.53
2023-04-26T19:49:18.569Z,2.70
2023-04-26T19:54:28.880Z,2.30
2023-04-26T20:00:01.966Z,2.40
2023-04-26T20:53:11.889Z,2.30
2023-04-26T20:58:14.813Z,3.10
2023-04-26T21:03:17.704Z,2.10
2023-04-26T21:08:21.903Z,2.40
2023-04-26T21:13:24.705Z,2.28
2023-04-26T21:18:27.840Z,2.83
2023-04-26T21:23:32.034Z,2.30
2023-04-26T21:28:35.162Z,2.33
2023-04-26T21:33:37.982Z,2.55
2023-04-26T21:38:42.102Z,2.85
2023-04-26T21:43:45.038Z,2.85
2023-04-26T21:48:47.939Z,2.58
2023-04-26T21:53:52.075Z,2.80
2023-04-26T21:58:54.796Z,2.50
2023-04-26T22:03:57.695Z,2.55
2023-04-26T22:09:01.955Z,2.28
2023-04-26T22:14:04.721Z,2.95
2023-04-26T22:19:07.462Z,2.53
2023-04-26T22:24:11.583Z,2.78
2023-04-26T22:29:14.558Z,2.65
2023-04-26T22:34:19.323Z,2.85
2023-04-26T22:39:23.461Z,2.72
2023-04-26T22:44:26.282Z,2.95
2023-04-26T22:49:29.239Z,3.90
2023-04-26T22:54:33.898Z,2.72
2023-04-26T22:59:36.762Z,2.92
2023-04-26T23:04:39.656Z,2.97
2023-04-26T23:09:43.900Z,2.80
2023-04-26T23:14:47.768Z,2.97
2023-04-26T23:19:50.556Z,3.33
2023-04-26T23:24:54.816Z,3.20
2023-04-26T23:29:59.384Z,2.80
2023-04-26T23:35:02.401Z,3.13
2023-04-26T23:40:10.279Z,2.70
2023-04-26T23:45:13.066Z,2.75
2023-04-26T23:50:15.812Z,2.95
2023-04-26T23:55:19.948Z,3.30
